SBNT

Augusto Severo Airport

Natal, Brazil
TAF SBNT 261000Z 2612/2712 14010KT 9999 BKN022 TX30/2616Z TN24/2708Z BECMG 2614/2616 SCT025 BECMG 2700/2702 17005KT RMK PCH
Issued Valid From Valid To
Apr-26 @ 10:00 UTC
(4 hours ago)
Apr-26 @ 12:00 UTC
(2 hours ago)
Apr-27 @ 12:00 UTC
(in 22 hours)
Apr-26 @ 12:00 to Apr-26 @ 14:00
TAF SBNT 261000Z 2612/2712 14010KT 9999 BKN022 TX30/2616Z TN24/2708Z
Wind Visibility Clouds
140° at 10 knots 10,000+ meters
  • Broken at 2,200' AGL
Becoming Apr-26 @ 14:00 to Apr-27 @ 00:00
BECMG 2614/2616 SCT025
Wind Visibility Clouds
140° at 10 knots 10,000+ meters
  • Scattered at 2,500' AGL
Becoming Apr-27 @ 00:00 to Apr-27 @ 12:00
BECMG 2700/2702 17005KT RMK PCH
Wind Visibility Clouds
170° at 5 knots 10,000+ meters
  • Scattered at 2,500' AGL
TAF SBNT 261000Z 2612/2712 14010KT 9999 BKN022 TX30/2616Z TN24/2708Z BECMG 2614/2616 SCT025 BECMG 2700/2702 17005KT RMK PCH
Issued Apr-26 @ 10:00 UTC
(4 hours ago)
Valid From Apr-26 @ 12:00 UTC
(2 hours ago)
Valid To Apr-27 @ 12:00 UTC
(in 22 hours)
Apr-26 @ 12:00 - Apr-26 @ 14:00
Wind Visibility
140° at 10 knots 10,000+ meters
Clouds
  • Broken at 2,200' AGL
Becoming Apr-26 @ 14:00 - Apr-27 @ 00:00
Wind Visibility
140° at 10 knots 10,000+ meters
Clouds
  • Scattered at 2,500' AGL
Becoming Apr-27 @ 00:00 - Apr-27 @ 12:00
Wind Visibility
170° at 5 knots 10,000+ meters
Clouds
  • Scattered at 2,500' AGL